Time;durP1;ratioP1;P1;durP2;ratioP2;P2;SDS_P1;SDS_P2;PMS_P1;PMS_P2;Temp;Humidity;BMP_temperature;BMP_pressure;BME280_temperature;BME280_humidity;BME280_pressure;Samples;Min_cycle;Max_cycle;Signal;HPM_P1;HPM_P2
2021/09/13 00:02:08;;;;;;;8.80;4.70;;;13.60;1.00;;;;;;5035300;28;20386;-76
2021/09/13 00:04:38;;;;;;;9.03;4.17;;;13.70;1.00;;;;;;5035745;28;20386;-76
2021/09/13 00:07:21;;;;;;;10.73;5.17;;;;;;;;;;5036259;28;20901;-77
2021/09/13 00:13:22;;;;;;;5.70;4.77;;;13.40;1.00;;;;;;5026246;28;20393;-77
2021/09/13 00:15:51;;;;;;;6.20;4.63;;;13.40;1.00;;;;;;5020632;28;20494;-77
2021/09/13 00:18:17;;;;;;;10.53;4.80;;;13.40;1.00;;;;;;5015645;28;20387;-77
2021/09/13 00:20:43;;;;;;;6.77;4.20;;;;;;;;;;5030271;28;20423;-77
2021/09/13 00:23:26;;;;;;;7.27;4.80;;;13.30;1.00;;;;;;5026876;28;20184;-76
2021/09/13 00:25:56;;;;;;;8.60;4.80;;;13.30;1.00;;;;;;5033441;28;20500;-76
2021/09/13 00:28:26;;;;;;;6.53;4.20;;;13.30;1.00;;;;;;5025023;28;20401;-76
2021/09/13 00:30:52;;;;;;;8.60;5.13;;;13.20;1.00;;;;;;5018509;28;20453;-76
2021/09/13 00:33:20;;;;;;;6.40;4.90;;;13.20;1.00;;;;;;5014579;28;20410;-76
2021/09/13 00:35:46;;;;;;;8.03;4.50;;;13.20;1.00;;;;;;5015496;28;20239;-76
2021/09/13 00:38:26;;;;;;;7.70;4.70;;;13.10;1.00;;;;;;5023215;28;20906;-77
2021/09/13 00:44:14;;;;;;;12.17;5.30;;;13.10;1.00;;;;;;5028997;28;20492;-77
2021/09/13 00:46:51;;;;;;;6.90;5.10;;;13.10;1.00;;;;;;5028662;28;20830;-77
2021/09/13 00:49:56;;;;;;;5.97;5.10;;;13.10;1.00;;;;;;5020343;28;20447;-77
2021/09/13 00:52:26;;;;;;;9.17;5.67;;;13.00;1.00;;;;;;5015662;28;20380;-77
2021/09/13 00:55:03;;;;;;;15.70;5.70;;;13.00;1.00;;;;;;5015221;28;20412;-76
2021/09/13 00:57:33;;;;;;;9.20;5.33;;;13.00;1.00;;;;;;5015553;28;20396;-76
2021/09/13 01:00:26;;;;;;;10.40;4.60;;;13.00;1.00;;;;;;5031323;28;20394;-76
2021/09/13 01:03:03;;;;;;;7.37;4.77;;;12.90;1.00;;;;;;5015362;28;20381;-76
2021/09/13 01:05:44;;;;;;;9.10;4.83;;;12.90;1.00;;;;;;5015112;28;20400;-76
2021/09/13 01:08:10;;;;;;;6.87;4.80;;;12.80;1.00;;;;;;5015408;28;20455;-77
2021/09/13 01:10:56;;;;;;;6.20;4.63;;;12.90;1.00;;;;;;5029202;28;20455;-76
2021/09/13 01:13:27;;;;;;;8.27;5.50;;;12.80;1.00;;;;;;5027724;28;20404;-76
2021/09/13 01:16:20;;;;;;;6.80;4.53;;;12.80;1.00;;;;;;5025428;28;20389;-76
2021/09/13 01:18:50;;;;;;;9.07;5.43;;;12.80;1.00;;;;;;5017016;28;20387;-76
2021/09/13 01:21:21;;;;;;;13.00;5.57;;;12.80;1.00;;;;;;5034588;28;20407;-76
2021/09/13 01:23:47;;;;;;;9.67;4.40;;;;;;;;;;5033871;28;20488;-77
2021/09/13 01:26:20;;;;;;;9.50;5.00;;;12.80;1.00;;;;;;5033502;28;20462;-77
2021/09/13 01:28:46;;;;;;;7.43;4.97;;;12.70;1.00;;;;;;5029288;28;20424;-77
2021/09/13 01:31:29;;;;;;;6.47;4.57;;;;;;;;;;5026084;28;20508;-77
2021/09/13 01:33:57;;;;;;;8.17;5.13;;;12.70;1.00;;;;;;5034523;28;20207;-77
2021/09/13 01:36:41;;;;;;;8.63;5.37;;;12.70;1.00;;;;;;5033933;28;20419;-77
2021/09/13 01:39:08;;;;;;;9.37;4.90;;;12.70;1.00;;;;;;5032921;28;20393;-76
2021/09/13 01:41:38;;;;;;;6.37;4.67;;;12.70;1.00;;;;;;5033288;28;20488;-76
2021/09/13 01:44:08;;;;;;;8.60;4.73;;;12.70;1.00;;;;;;5028334;28;20875;-76
2021/09/13 01:46:45;;;;;;;10.60;5.57;;;12.60;1.00;;;;;;5031788;28;20494;-76
2021/09/13 01:49:32;;;;;;;15.07;5.67;;;12.60;1.00;;;;;;5023596;28;20804;-76
2021/09/13 01:52:14;;;;;;;17.20;5.97;;;12.40;1.00;;;;;;5034099;28;20402;-77
2021/09/13 01:55:02;;;;;;;8.50;5.10;;;12.50;1.00;;;;;;5033696;28;20452;-77
2021/09/13 01:57:32;;;;;;;10.70;4.70;;;12.50;1.00;;;;;;5033907;28;20947;-77
2021/09/13 02:00:15;;;;;;;6.10;4.43;;;12.50;1.00;;;;;;5033338;28;20425;-77
2021/09/13 02:02:44;;;;;;;11.67;5.87;;;;;;;;;;5014127;28;20408;-77
2021/09/13 02:05:14;;;;;;;12.47;5.00;;;12.50;1.00;;;;;;5031540;28;20394;-77
2021/09/13 02:07:40;;;;;;;8.30;5.70;;;12.50;1.00;;;;;;5033716;28;20381;-77
2021/09/13 02:10:14;;;;;;;6.10;5.13;;;12.40;1.00;;;;;;5026328;28;20476;-76
2021/09/13 02:13:26;;;;;;;10.80;5.10;;;12.50;1.00;;;;;;5014079;28;20168;-76
2021/09/13 02:16:44;;;;;;;10.23;4.80;;;12.40;1.00;;;;;;5024955;28;20393;-77
2021/09/13 02:19:09;;;;;;;8.90;4.40;;;12.40;1.00;;;;;;5024765;28;20406;-76
2021/09/13 02:21:56;;;;;;;12.17;4.77;;;12.40;1.00;;;;;;5033976;28;20395;-76
2021/09/13 02:24:21;;;;;;;9.73;4.73;;;12.40;1.00;;;;;;5023856;28;20260;-77
2021/09/13 02:26:56;;;;;;;7.13;4.70;;;12.40;1.00;;;;;;5014020;28;20459;-78
2021/09/13 02:29:56;;;;;;;10.73;5.20;;;12.40;1.00;;;;;;5013728;28;20627;-78
2021/09/13 02:35:56;;;;;;;9.70;4.90;;;12.40;1.00;;;;;;5013645;28;20426;-77
2021/09/13 02:38:26;;;;;;;11.63;5.07;;;12.40;1.00;;;;;;5014109;28;20383;-77
2021/09/13 02:40:57;;;;;;;9.33;5.10;;;12.40;1.00;;;;;;5013786;28;20403;-77
2021/09/13 02:43:22;;;;;;;6.87;5.20;;;12.40;1.00;;;;;;5019115;28;20445;-77
2021/09/13 02:45:56;;;;;;;6.27;4.30;;;12.40;1.00;;;;;;5027192;28;20903;-77
2021/09/13 02:48:56;;;;;;;6.60;4.80;;;12.50;1.00;;;;;;5027247;28;20223;-77
2021/09/13 02:51:26;;;;;;;6.43;4.60;;;12.50;1.00;;;;;;5013835;28;20469;-77
2021/09/13 02:53:56;;;;;;;5.90;4.33;;;12.40;1.00;;;;;;5017044;28;20798;-77
2021/09/13 02:56:26;;;;;;;10.50;5.50;;;12.40;1.00;;;;;;5027565;28;20418;-77
2021/09/13 02:58:56;;;;;;;10.40;5.13;;;;;;;;;;5036983;28;20401;-77
2021/09/13 03:01:26;;;;;;;13.90;4.90;;;12.40;1.00;;;;;;5027293;28;20418;-77
2021/09/13 03:04:02;;;;;;;11.50;5.10;;;12.40;1.00;;;;;;5017160;28;20405;-77
2021/09/13 03:09:56;;;;;;;6.70;4.60;;;12.40;1.00;;;;;;5018318;28;20445;-76
2021/09/13 03:12:29;;;;;;;8.40;5.07;;;12.30;1.00;;;;;;5017512;28;20388;-76
2021/09/13 03:14:56;;;;;;;6.57;5.10;;;12.30;1.00;;;;;;5028258;28;20441;-76
2021/09/13 03:17:26;;;;;;;12.70;4.63;;;12.30;1.00;;;;;;5030445;28;20499;-76
2021/09/13 03:19:56;;;;;;;10.57;5.33;;;12.30;1.00;;;;;;5030751;28;20756;-76
2021/09/13 03:22:26;;;;;;;7.10;5.50;;;12.30;1.00;;;;;;5018428;28;20762;-76
2021/09/13 03:24:56;;;;;;;6.60;4.97;;;12.30;1.00;;;;;;5017804;28;20412;-77
2021/09/13 03:27:22;;;;;;;7.93;4.90;;;12.20;1.00;;;;;;5026416;28;20394;-77
2021/09/13 03:30:26;;;;;;;17.00;4.93;;;12.20;1.00;;;;;;5016649;28;20961;-77
2021/09/13 03:33:26;;;;;;;11.50;5.30;;;12.20;1.00;;;;;;5016864;28;20166;-77
2021/09/13 03:35:52;;;;;;;11.90;5.03;;;12.20;1.00;;;;;;5020554;28;20397;-77
2021/09/13 03:38:26;;;;;;;8.33;5.40;;;12.20;1.00;;;;;;5032256;28;20391;-76
2021/09/13 03:40:56;;;;;;;11.00;5.23;;;12.20;1.00;;;;;;5016781;28;20157;-76
2021/09/13 03:43:22;;;;;;;7.80;5.60;;;;;;;;;;5034434;28;20826;-76
2021/09/13 03:45:50;;;;;;;11.00;5.93;;;12.20;1.00;;;;;;5030000;28;20762;-76
2021/09/13 03:48:56;;;;;;;7.80;5.50;;;12.10;1.00;;;;;;5036267;28;20419;-77
2021/09/13 03:51:26;;;;;;;6.00;4.97;;;12.10;1.00;;;;;;5035608;28;20459;-76
2021/09/13 03:53:56;;;;;;;8.70;5.90;;;12.10;1.00;;;;;;5036710;28;20381;-76
2021/09/13 03:56:27;;;;;;;8.30;5.47;;;12.10;1.00;;;;;;5035969;28;20450;-76
2021/09/13 03:58:56;;;;;;;8.83;5.07;;;12.10;1.00;;;;;;5026852;28;20426;-80
2021/09/13 04:01:27;;;;;;;18.67;6.07;;;;;;;;;;5019939;28;20408;-81
2021/09/13 04:03:59;;;;;;;19.00;5.60;;;12.00;1.00;;;;;;5016163;28;20391;-76
2021/09/13 04:06:53;;;;;;;6.53;5.17;;;12.00;1.00;;;;;;5022290;28;20392;-75
2021/09/13 04:12:00;;;;;;;16.70;5.37;;;12.00;1.00;;;;;;5035620;28;20417;-75
2021/09/13 04:14:31;;;;;;;14.13;5.47;;;11.90;1.00;;;;;;5032309;28;20431;-75
2021/09/13 04:17:02;;;;;;;27.93;9.73;;;11.90;1.00;;;;;;5025568;28;20434;-76
2021/09/13 04:20:14;;;;;;;10.47;5.50;;;11.90;1.00;;;;;;5031742;28;20784;-76
2021/09/13 04:22:44;;;;;;;8.70;5.90;;;11.90;1.00;;;;;;5031878;28;20423;-75
2021/09/13 04:25:14;;;;;;;10.33;5.33;;;11.90;1.00;;;;;;5035934;28;20402;-75
2021/09/13 04:27:50;;;;;;;12.43;5.87;;;11.80;1.00;;;;;;5031372;28;20424;-74
2021/09/13 04:30:16;;;;;;;10.53;5.67;;;11.80;1.00;;;;;;5016052;28;20565;-74
2021/09/13 04:33:02;;;;;;;10.13;5.27;;;11.70;1.00;;;;;;5015668;28;20507;-77
2021/09/13 04:35:28;;;;;;;6.60;5.03;;;11.70;1.00;;;;;;5015823;28;20196;-77
2021/09/13 04:38:20;;;;;;;7.47;5.23;;;11.60;1.00;;;;;;5022208;28;20412;-77
2021/09/13 04:40:45;;;;;;;9.37;5.57;;;11.60;1.00;;;;;;5034467;28;20255;-76
2021/09/13 04:43:11;;;;;;;17.83;5.80;;;11.60;1.00;;;;;;5035368;28;20438;-76
2021/09/13 04:45:38;;;;;;;13.73;5.80;;;11.60;1.00;;;;;;5034387;28;20585;-76
2021/09/13 04:48:14;;;;;;;9.83;5.87;;;11.60;1.00;;;;;;5034738;28;20176;-76
2021/09/13 04:51:02;;;;;;;8.43;5.83;;;11.50;1.00;;;;;;5018968;28;20455;-76
2021/09/13 04:53:50;;;;;;;10.30;5.77;;;11.50;1.00;;;;;;5015582;28;20891;-77
2021/09/13 04:59:56;;;;;;;11.27;5.00;;;11.50;1.00;;;;;;5017752;28;20645;-78
2021/09/13 05:03:14;;;;;;;7.57;5.23;;;11.40;1.00;;;;;;5015328;28;20395;-77
2021/09/13 05:05:39;;;;;;;9.40;6.10;;;11.40;1.00;;;;;;5027232;28;20838;-77
2021/09/13 05:08:08;;;;;;;9.50;6.00;;;11.40;1.00;;;;;;5031915;28;20421;-77
2021/09/13 05:10:56;;;;;;;20.03;6.20;;;11.40;1.00;;;;;;5031379;28;20189;-76
2021/09/13 05:13:32;;;;;;;13.07;6.40;;;11.40;1.00;;;;;;5030723;28;20510;-76
2021/09/13 05:16:02;;;;;;;10.17;6.33;;;11.50;1.00;;;;;;5028043;28;20464;-76
2021/09/13 05:18:32;;;;;;;10.20;5.23;;;11.50;1.00;;;;;;5034586;28;20399;-76
2021/09/13 05:21:08;;;;;;;9.60;6.10;;;11.50;1.00;;;;;;5034273;28;20413;-76
2021/09/13 05:23:38;;;;;;;12.30;6.87;;;11.40;1.00;;;;;;5031029;28;20823;-76
2021/09/13 05:26:41;;;;;;;9.40;5.97;;;11.50;1.00;;;;;;5034794;28;20858;-76
2021/09/13 05:29:08;;;;;;;12.57;6.57;;;11.50;1.00;;;;;;5027945;28;20419;-76
2021/09/13 05:31:50;;;;;;;8.00;6.17;;;11.50;1.00;;;;;;5034974;28;20426;-76
2021/09/13 05:34:20;;;;;;;8.63;5.73;;;11.60;1.00;;;;;;5034599;28;20785;-76
2021/09/13 05:36:50;;;;;;;16.67;6.57;;;11.60;1.00;;;;;;5033704;28;20407;-76
2021/09/13 05:39:20;;;;;;;13.50;6.90;;;11.70;1.00;;;;;;5033687;28;20425;-76
2021/09/13 05:41:50;;;;;;;14.90;6.80;;;11.70;1.00;;;;;;5017656;28;20772;-76
2021/09/13 05:44:16;;;;;;;13.43;5.90;;;11.80;1.00;;;;;;5027733;28;20524;-76
2021/09/13 05:46:42;;;;;;;9.73;6.20;;;11.80;1.00;;;;;;5024928;28;20451;-76
2021/09/13 05:49:11;;;;;;;11.33;6.10;;;11.90;1.00;;;;;;5033557;28;20901;-76
2021/09/13 05:51:51;;;;;;;8.13;6.63;;;12.00;1.00;;;;;;5034180;28;20153;-76
2021/09/13 05:54:26;;;;;;;9.67;5.67;;;12.00;1.00;;;;;;5033907;28;20438;-77
2021/09/13 05:57:26;;;;;;;10.90;6.33;;;12.10;1.00;;;;;;5034096;28;20694;-77
2021/09/13 06:00:26;;;;;;;9.40;5.30;;;12.20;1.00;;;;;;5031967;28;20394;-79
2021/09/13 06:03:20;;;;;;;7.43;5.90;;;12.30;1.00;;;;;;5034008;28;20442;-79
2021/09/13 06:05:56;;;;;;;8.90;5.93;;;12.30;1.00;;;;;;5033709;28;20389;-77
2021/09/13 06:08:22;;;;;;;10.73;6.03;;;12.50;1.00;;;;;;5026366;28;20431;-76
2021/09/13 06:10:48;;;;;;;15.37;5.80;;;12.60;1.00;;;;;;5033938;28;20451;-76
2021/09/13 06:13:14;;;;;;;16.10;6.03;;;;;;;;;;5033379;28;20435;-76
2021/09/13 06:15:40;;;;;;;11.10;5.90;;;;;;;;;;5016272;28;20463;-76
2021/09/13 06:18:06;;;;;;;10.60;5.60;;;12.80;1.00;;;;;;5029056;28;20825;-76
2021/09/13 06:20:33;;;;;;;12.40;6.13;;;;;;;;;;5013135;28;20396;-76
2021/09/13 06:22:59;;;;;;;11.93;6.33;;;13.00;1.00;;;;;;5019991;28;20192;-76
2021/09/13 06:25:25;;;;;;;9.03;5.50;;;;;;;;;;5032546;28;20526;-77
2021/09/13 06:27:51;;;;;;;8.00;5.83;;;13.20;1.00;;;;;;5033579;28;20807;-77
2021/09/13 06:30:20;;;;;;;9.10;5.50;;;13.30;1.00;;;;;;5036872;28;20498;-77
2021/09/13 06:32:46;;;;;;;10.03;5.50;;;13.40;1.00;;;;;;5036873;28;20168;-77
2021/09/13 06:35:12;;;;;;;10.17;5.90;;;;;;;;;;5036709;28;20897;-77
2021/09/13 06:37:37;;;;;;;16.13;5.60;;;13.60;1.00;;;;;;5036922;28;20552;-77
2021/09/13 06:40:04;;;;;;;19.00;7.23;;;13.70;1.00;;;;;;5035873;28;20400;-76
2021/09/13 06:42:32;;;;;;;13.03;6.40;;;13.70;1.00;;;;;;5037389;28;20184;-76
2021/09/13 06:45:07;;;;;;;12.10;6.10;;;13.80;1.00;;;;;;5026422;28;20517;-76
2021/09/13 06:47:45;;;;;;;5.47;4.93;;;13.80;1.00;;;;;;5017636;28;20425;-77
2021/09/13 06:50:24;;;;;;;10.43;5.87;;;14.00;1.00;;;;;;5025942;28;21007;-77
2021/09/13 06:53:14;;;;;;;11.60;6.80;;;14.10;1.00;;;;;;5037244;28;20848;-76
2021/09/13 06:56:04;;;;;;;9.63;6.03;;;14.10;1.00;;;;;;5037907;28;20403;-77
2021/09/13 06:58:39;;;;;;;7.17;5.90;;;14.30;1.00;;;;;;5037684;28;20395;-77
2021/09/13 07:01:05;;;;;;;12.33;6.27;;;14.40;1.00;;;;;;5036998;28;20369;-77
2021/09/13 07:03:31;;;;;;;14.77;7.00;;;14.60;1.00;;;;;;5021092;28;20455;-77
2021/09/13 07:05:56;;;;;;;17.00;10.03;;;14.70;1.00;;;;;;5016680;28;20201;-77
2021/09/13 07:08:22;;;;;;;17.03;9.20;;;14.90;1.00;;;;;;5016356;28;20192;-78
2021/09/13 07:10:49;;;;;;;19.80;9.23;;;15.00;1.00;;;;;;5016802;28;20648;-77
2021/09/13 07:13:20;;;;;;;17.70;8.93;;;15.10;1.00;;;;;;5016053;28;20216;-77
2021/09/13 07:15:51;;;;;;;13.00;7.90;;;;;;;;;;5021259;28;20466;-77
2021/09/13 07:18:16;;;;;;;10.33;7.00;;;15.40;1.00;;;;;;5035580;28;20390;-77
2021/09/13 07:20:42;;;;;;;18.50;7.83;;;15.50;1.00;;;;;;5016221;28;20386;-77
2021/09/13 07:23:08;;;;;;;26.47;8.10;;;15.60;1.00;;;;;;5016085;28;20275;-77
2021/09/13 07:25:33;;;;;;;11.20;7.63;;;15.80;1.00;;;;;;5016471;28;20173;-77
2021/09/13 07:27:59;;;;;;;14.67;7.03;;;15.90;1.00;;;;;;5016048;28;20168;-76
2021/09/13 07:30:26;;;;;;;12.47;7.20;;;15.90;1.00;;;;;;5016214;28;20220;-76
2021/09/13 07:32:52;;;;;;;12.40;7.10;;;16.00;1.00;;;;;;5016028;28;20613;-76
2021/09/13 07:35:18;;;;;;;15.53;8.27;;;16.20;1.00;;;;;;5016004;28;20400;-76
2021/09/13 07:37:43;;;;;;;16.87;8.03;;;16.20;1.00;;;;;;5015915;28;20906;-76
2021/09/13 07:40:10;;;;;;;12.40;7.13;;;16.30;1.00;;;;;;5015550;28;20243;-77
2021/09/13 07:42:36;;;;;;;13.13;6.67;;;16.30;1.00;;;;;;5015790;28;20197;-78
2021/09/13 07:45:03;;;;;;;16.03;6.63;;;16.50;1.00;;;;;;5015639;28;20539;-78
2021/09/13 07:47:30;;;;;;;11.00;7.20;;;16.50;1.00;;;;;;5015759;28;20424;-78
2021/09/13 07:49:57;;;;;;;14.70;7.30;;;16.70;1.00;;;;;;5015933;28;20418;-78
2021/09/13 07:52:23;;;;;;;20.67;8.07;;;16.60;1.00;;;;;;5015616;28;20471;-78
2021/09/13 07:54:50;;;;;;;10.90;6.10;;;16.70;1.00;;;;;;5015495;28;20733;-78
2021/09/13 07:57:16;;;;;;;12.23;7.13;;;16.80;1.00;;;;;;5032566;28;20279;-77
2021/09/13 07:59:41;;;;;;;18.83;7.83;;;17.00;1.00;;;;;;5035229;28;20900;-77
2021/09/13 08:02:09;;;;;;;19.03;8.77;;;17.10;1.00;;;;;;5035290;28;20157;-77
2021/09/13 08:04:35;;;;;;;14.90;7.00;;;17.20;1.00;;;;;;5035251;28;20199;-77
2021/09/13 08:07:01;;;;;;;17.87;8.30;;;17.30;1.00;;;;;;5034548;28;20843;-77
2021/09/13 08:09:26;;;;;;;18.97;7.50;;;17.40;1.00;;;;;;5034945;28;20241;-77
2021/09/13 08:11:52;;;;;;;9.40;7.13;;;17.50;1.00;;;;;;5035311;28;20188;-77
2021/09/13 08:14:17;;;;;;;11.60;7.90;;;17.70;1.00;;;;;;5031264;28;20267;-77
2021/09/13 08:16:44;;;;;;;12.40;6.40;;;17.70;1.00;;;;;;5019628;28;20183;-77
2021/09/13 08:19:10;;;;;;;10.90;6.60;;;;;;;;;;5034853;28;20174;-77
2021/09/13 08:21:40;;;;;;;11.67;7.47;;;17.80;1.00;;;;;;5034928;28;20752;-77
2021/09/13 08:24:06;;;;;;;17.17;7.60;;;17.90;1.00;;;;;;5034776;28;20508;-77
2021/09/13 08:26:32;;;;;;;11.37;6.73;;;18.10;1.00;;;;;;5035030;28;20394;-77
2021/09/13 08:28:58;;;;;;;17.40;8.27;;;18.20;1.00;;;;;;5034748;28;20764;-77
2021/09/13 08:31:23;;;;;;;13.43;7.57;;;18.20;1.00;;;;;;5035067;28;20623;-77
2021/09/13 08:33:49;;;;;;;9.67;6.53;;;18.50;1.00;;;;;;5034770;28;20166;-77
2021/09/13 08:36:16;;;;;;;12.43;8.20;;;18.60;1.00;;;;;;5034762;28;20158;-76
2021/09/13 08:38:42;;;;;;;11.43;7.20;;;18.60;1.00;;;;;;5035050;28;20190;-76
2021/09/13 08:41:07;;;;;;;16.40;7.00;;;18.80;1.00;;;;;;5034735;28;20493;-77
2021/09/13 08:43:33;;;;;;;11.40;7.60;;;19.00;1.00;;;;;;5034245;28;20822;-77
2021/09/13 08:46:04;;;;;;;18.23;6.80;;;19.00;1.00;;;;;;5034266;28;20183;-77
2021/09/13 08:48:47;;;;;;;14.73;6.70;;;19.10;1.00;;;;;;5034324;28;20243;-77
2021/09/13 08:53:41;;;;;;;13.47;7.13;;;19.50;1.00;;;;;;5034304;28;20404;-77
2021/09/13 08:56:13;;;;;;;21.10;7.80;;;19.50;1.00;;;;;;5034325;28;20222;-77
2021/09/13 08:58:40;;;;;;;15.20;6.97;;;19.60;1.00;;;;;;5034238;28;20418;-77
2021/09/13 09:01:06;;;;;;;13.43;6.50;;;19.60;1.00;;;;;;5034088;28;20406;-76
2021/09/13 09:03:35;;;;;;;9.07;6.80;;;19.60;1.00;;;;;;5034177;28;20396;-76
2021/09/13 09:06:01;;;;;;;8.83;6.47;;;19.80;1.00;;;;;;5033654;28;20427;-76
2021/09/13 09:08:32;;;;;;;10.43;6.07;;;19.80;1.00;;;;;;5033614;28;20406;-77
2021/09/13 09:11:01;;;;;;;12.00;6.73;;;19.90;1.00;;;;;;5033883;28;20203;-76
2021/09/13 09:13:41;;;;;;;19.17;7.47;;;20.00;1.00;;;;;;5033662;28;20754;-76
2021/09/13 09:16:07;;;;;;;10.07;5.47;;;20.00;1.00;;;;;;5027973;28;20995;-77
2021/09/13 09:18:41;;;;;;;10.43;6.40;;;20.20;1.00;;;;;;5033052;28;20506;-77
2021/09/13 09:21:09;;;;;;;14.07;8.00;;;20.20;1.00;;;;;;5029758;28;20420;-77
2021/09/13 09:23:58;;;;;;;12.43;7.90;;;20.10;1.00;;;;;;5026115;28;20447;-76
2021/09/13 09:26:25;;;;;;;13.03;6.70;;;20.10;1.00;;;;;;5029958;28;20432;-77
2021/09/13 09:29:02;;;;;;;17.40;6.60;;;20.10;1.00;;;;;;5022607;28;20410;-77
2021/09/13 09:31:45;;;;;;;6.60;5.27;;;20.10;1.00;;;;;;5017556;28;20696;-76
2021/09/13 09:34:21;;;;;;;16.57;5.23;;;20.20;1.00;;;;;;5033438;28;20523;-77
2021/09/13 09:37:12;;;;;;;7.60;5.30;;;20.30;1.00;;;;;;5031013;28;20415;-77
2021/09/13 09:39:54;;;;;;;11.20;5.93;;;20.40;1.00;;;;;;5033032;28;20482;-77
2021/09/13 09:43:02;;;;;;;10.70;6.13;;;20.60;1.00;;;;;;5034533;28;20868;-76
2021/09/13 09:45:27;;;;;;;15.17;6.70;;;20.70;1.00;;;;;;5030906;28;20444;-76
2021/09/13 09:48:44;;;;;;;18.50;5.67;;;20.80;1.00;;;;;;5014754;28;20457;-77
2021/09/13 09:51:26;;;;;;;9.10;5.13;;;20.80;1.00;;;;;;5014440;28;20189;-76
2021/09/13 09:54:24;;;;;;;6.90;5.33;;;20.90;1.00;;;;;;5014525;28;20395;-77
2021/09/13 09:57:01;;;;;;;8.10;5.67;;;20.90;1.00;;;;;;5004997;28;20421;-76
2021/09/13 09:59:43;;;;;;;10.97;5.60;;;21.00;1.00;;;;;;5011070;28;20414;-76
2021/09/13 10:02:13;;;;;;;8.13;5.30;;;21.00;1.00;;;;;;5010886;28;20423;-77
2021/09/13 10:04:40;;;;;;;13.03;6.60;;;21.20;1.00;;;;;;5010927;28;20391;-77
2021/09/13 10:07:07;;;;;;;11.00;6.50;;;21.20;1.00;;;;;;5006745;28;20425;-77
2021/09/13 10:09:32;;;;;;;9.40;5.70;;;21.20;1.00;;;;;;5010357;28;20911;-77
2021/09/13 10:12:02;;;;;;;11.00;5.70;;;21.40;1.00;;;;;;5011468;28;20493;-77
2021/09/13 10:14:30;;;;;;;8.20;5.50;;;21.40;1.00;;;;;;4992745;28;20569;-77
2021/09/13 10:16:57;;;;;;;10.83;5.93;;;21.50;1.00;;;;;;5010393;28;20450;-77
2021/09/13 10:19:24;;;;;;;8.67;6.03;;;21.60;1.00;;;;;;5010584;28;20462;-77
2021/09/13 10:21:50;;;;;;;8.50;5.10;;;21.70;1.00;;;;;;5010774;28;20406;-77
2021/09/13 10:24:28;;;;;;;8.43;5.50;;;21.80;1.00;;;;;;5009779;28;20430;-77
2021/09/13 10:27:16;;;;;;;9.37;6.70;;;21.70;1.00;;;;;;5008453;28;20432;-77
2021/09/13 10:29:44;;;;;;;7.63;4.97;;;21.90;1.00;;;;;;5010611;28;20496;-77
2021/09/13 10:32:15;;;;;;;16.93;5.07;;;21.90;1.00;;;;;;5012428;28;20557;-77
2021/09/13 10:34:40;;;;;;;6.57;5.17;;;21.90;1.00;;;;;;5032548;28;20727;-77
2021/09/13 10:37:15;;;;;;;6.30;5.00;;;21.90;1.00;;;;;;5032654;28;20405;-77
2021/09/13 10:39:57;;;;;;;15.93;6.90;;;22.00;1.00;;;;;;5032630;28;20166;-77
2021/09/13 10:42:37;;;;;;;8.60;4.33;;;22.00;1.00;;;;;;5031914;28;20432;-76
2021/09/13 10:45:06;;;;;;;12.70;5.57;;;22.10;1.00;;;;;;5032553;28;20918;-76
2021/09/13 10:47:32;;;;;;;10.90;5.20;;;22.20;1.00;;;;;;5031328;28;20428;-76
2021/09/13 10:50:21;;;;;;;13.30;5.20;;;22.40;1.00;;;;;;5032467;28;20806;-76
2021/09/13 10:52:55;;;;;;;9.00;5.20;;;22.50;1.00;;;;;;5031105;28;20253;-77
2021/09/13 10:55:37;;;;;;;4.77;4.37;;;22.50;1.00;;;;;;5032873;28;20433;-77
2021/09/13 10:58:46;;;;;;;8.87;5.00;;;22.60;1.00;;;;;;5023810;28;20416;-77
2021/09/13 11:01:29;;;;;;;4.97;3.73;;;22.70;1.00;;;;;;5031939;28;20441;-77
2021/09/13 11:04:09;;;;;;;5.80;4.50;;;22.80;1.00;;;;;;5020939;28;20421;-77
2021/09/13 11:06:41;;;;;;;8.17;4.70;;;22.90;1.00;;;;;;5032861;28;20900;-77
2021/09/13 11:09:18;;;;;;;7.80;4.27;;;22.90;1.00;;;;;;5027821;28;20424;-77
2021/09/13 11:11:51;;;;;;;17.83;4.23;;;23.00;1.00;;;;;;5032480;28;20568;-76
2021/09/13 11:14:22;;;;;;;8.17;4.03;;;23.00;1.00;;;;;;5032018;28;20491;-76
2021/09/13 11:17:19;;;;;;;4.00;3.30;;;23.10;1.00;;;;;;5030641;28;20506;-78
2021/09/13 11:23:30;;;;;;;4.90;3.73;;;23.40;1.00;;;;;;5018444;28;20928;-78
2021/09/13 11:32:39;;;;;;;6.10;4.13;;;23.50;1.00;;;;;;5016635;28;20982;-77
2021/09/13 11:35:13;;;;;;;6.90;4.33;;;23.60;1.00;;;;;;5027539;28;20443;-76
2021/09/13 11:37:38;;;;;;;4.47;3.30;;;23.70;1.00;;;;;;5036067;28;20178;-77
2021/09/13 11:40:44;;;;;;;6.30;3.87;;;23.70;1.00;;;;;;5036428;28;20390;-77
2021/09/13 11:46:48;;;;;;;3.77;3.37;;;23.60;1.00;;;;;;5016386;28;20955;-79
2021/09/13 11:52:50;;;;;;;3.10;2.87;;;23.60;1.00;;;;;;5030309;28;20426;-80
2021/09/13 11:55:38;;;;;;;7.20;3.40;;;23.70;1.00;;;;;;5032861;28;20418;-76
2021/09/13 11:58:08;;;;;;;3.80;3.20;;;23.80;1.00;;;;;;5027969;28;20408;-77
2021/09/13 12:00:38;;;;;;;6.83;3.10;;;23.90;1.00;;;;;;5034456;28;20465;-78
2021/09/13 12:03:07;;;;;;;5.50;3.03;;;23.90;1.00;;;;;;5043369;28;20406;-78
2021/09/13 12:05:38;;;;;;;11.13;2.97;;;24.10;1.00;;;;;;5054966;28;20883;-78
2021/09/13 12:08:21;;;;;;;11.17;3.50;;;24.10;1.00;;;;;;5047123;28;20462;-78
2021/09/13 12:10:50;;;;;;;12.57;3.83;;;24.30;1.00;;;;;;5034997;28;20441;-78
2021/09/13 12:13:18;;;;;;;3.53;2.77;;;24.30;1.00;;;;;;5025117;28;20460;-76
2021/09/13 12:15:49;;;;;;;5.30;3.20;;;24.30;1.00;;;;;;5024434;28;20812;-76
2021/09/13 12:18:18;;;;;;;8.33;3.40;;;24.50;1.00;;;;;;5034653;28;20434;-76
2021/09/13 12:20:46;;;;;;;5.03;2.83;;;24.60;1.00;;;;;;5033523;28;20444;-76
2021/09/13 12:23:14;;;;;;;3.47;3.17;;;24.50;1.00;;;;;;5034703;28;20423;-76
2021/09/13 12:25:51;;;;;;;4.13;3.27;;;24.60;1.00;;;;;;5034526;28;20411;-76
2021/09/13 12:28:26;;;;;;;5.30;2.90;;;24.80;1.00;;;;;;5035193;28;20390;-77
2021/09/13 12:31:08;;;;;;;4.73;3.30;;;24.80;1.00;;;;;;5034819;28;20731;-78
2021/09/13 12:33:46;;;;;;;5.73;3.03;;;24.80;1.00;;;;;;5034782;28;20401;-78
2021/09/13 12:36:20;;;;;;;3.57;3.03;;;24.70;1.00;;;;;;5034558;28;20393;-78
2021/09/13 12:38:49;;;;;;;9.90;2.77;;;24.80;1.00;;;;;;5034565;28;20476;-78
2021/09/13 12:41:28;;;;;;;8.23;3.20;;;24.90;1.00;;;;;;5034510;28;20405;-78
2021/09/13 12:43:54;;;;;;;6.40;3.60;;;24.90;1.00;;;;;;5034700;28;20547;-77
2021/09/13 12:46:20;;;;;;;7.23;2.70;;;25.00;1.00;;;;;;5032937;28;20543;-77
2021/09/13 12:48:48;;;;;;;5.20;3.00;;;25.10;1.00;;;;;;5034326;28;20160;-77
2021/09/13 12:51:19;;;;;;;3.47;3.13;;;25.00;1.00;;;;;;5027699;28;20207;-77
2021/09/13 12:53:57;;;;;;;6.17;3.03;;;25.10;1.00;;;;;;5029728;28;20413;-78
2021/09/13 12:56:23;;;;;;;3.83;2.97;;;25.20;1.00;;;;;;5033948;28;20969;-78
2021/09/13 12:58:48;;;;;;;7.87;3.17;;;25.20;1.00;;;;;;5034458;28;20533;-77
2021/09/13 13:01:34;;;;;;;5.70;3.17;;;25.40;1.00;;;;;;5033917;28;20435;-77
2021/09/13 13:04:07;;;;;;;4.43;2.90;;;25.40;1.00;;;;;;5033835;28;20189;-77
2021/09/13 13:06:35;;;;;;;7.60;3.30;;;25.30;1.00;;;;;;5033961;28;20830;-77
2021/09/13 13:09:03;;;;;;;3.70;3.03;;;25.30;1.00;;;;;;5033713;28;20399;-77
2021/09/13 13:11:31;;;;;;;3.73;2.83;;;25.30;1.00;;;;;;5033785;28;20583;-77
2021/09/13 13:13:57;;;;;;;8.33;2.83;;;;;;;;;;5033900;28;20390;-77
2021/09/13 13:16:40;;;;;;;6.40;2.97;;;25.40;1.00;;;;;;5032480;28;20430;-77
2021/09/13 13:19:07;;;;;;;4.23;2.80;;;25.40;1.00;;;;;;5033666;28;20415;-77
2021/09/13 13:21:33;;;;;;;10.40;2.83;;;25.40;1.00;;;;;;5033697;28;20394;-78
2021/09/13 13:23:59;;;;;;;10.83;2.90;;;25.40;1.00;;;;;;5033637;28;20567;-78
2021/09/13 13:26:25;;;;;;;3.27;2.60;;;25.40;1.00;;;;;;5033578;28;20157;-78
2021/09/13 13:28:50;;;;;;;3.37;2.30;;;25.40;1.00;;;;;;5033817;28;20763;-76
2021/09/13 13:31:16;;;;;;;3.00;2.60;;;25.40;1.00;;;;;;5033805;28;20202;-76
2021/09/13 13:33:42;;;;;;;3.10;2.60;;;25.50;1.00;;;;;;5033536;28;20158;-76
2021/09/13 13:36:07;;;;;;;3.90;2.50;;;25.60;1.00;;;;;;5033467;28;20173;-76
2021/09/13 13:38:33;;;;;;;2.57;2.37;;;25.80;1.00;;;;;;5032723;28;20194;-76
2021/09/13 13:40:59;;;;;;;8.10;2.70;;;25.80;1.00;;;;;;5033364;28;20365;-76
2021/09/13 13:43:27;;;;;;;6.07;3.10;;;25.90;1.00;;;;;;5033660;28;20205;-76
2021/09/13 13:45:53;;;;;;;3.07;2.87;;;26.00;1.00;;;;;;5033137;28;20631;-76
2021/09/13 13:48:19;;;;;;;3.60;2.70;;;26.00;1.00;;;;;;5033304;28;20402;-76
2021/09/13 13:50:45;;;;;;;5.13;2.67;;;26.00;1.00;;;;;;5031892;28;20204;-76
2021/09/13 13:53:10;;;;;;;3.63;2.60;;;26.00;1.00;;;;;;5031661;28;20766;-76
2021/09/13 13:55:36;;;;;;;3.30;3.00;;;26.10;1.00;;;;;;5032885;28;20262;-76
2021/09/13 13:58:01;;;;;;;6.50;2.50;;;26.10;1.00;;;;;;5032786;28;20153;-76
2021/09/13 14:00:27;;;;;;;9.27;2.67;;;26.20;1.00;;;;;;5033094;28;20164;-77
2021/09/13 14:02:53;;;;;;;3.87;2.70;;;26.20;1.00;;;;;;5033111;28;20169;-78
2021/09/13 14:05:18;;;;;;;9.03;3.10;;;26.30;1.00;;;;;;5033068;28;20195;-78
2021/09/13 14:07:45;;;;;;;4.30;2.73;;;26.50;1.00;;;;;;5032706;28;20167;-78
2021/09/13 14:10:11;;;;;;;5.00;2.90;;;26.60;1.00;;;;;;5032929;28;20551;-77